createdAt,value
2022-11-28T00:01:30.656Z,15.52
2022-11-28T00:03:58.491Z,14.30
2022-11-28T00:06:26.763Z,16.13
2022-11-28T00:08:54.852Z,17.77
2022-11-28T00:11:22.501Z,13.52
2022-11-28T00:13:50.262Z,15.02
2022-11-28T00:16:21.973Z,15.52
2022-11-28T00:18:50.110Z,16.65
2022-11-28T00:21:18.938Z,14.35
2022-11-28T00:23:48.314Z,17.13
2022-11-28T00:26:19.028Z,13.48
2022-11-28T00:28:47.143Z,13.98
2022-11-28T00:31:16.059Z,16.27
2022-11-28T00:33:45.315Z,13.90
2022-11-28T00:36:13.880Z,13.65
2022-11-28T00:38:42.145Z,15.80
2022-11-28T00:41:13.962Z,13.98
2022-11-28T00:43:42.566Z,15.57
2022-11-28T00:46:10.982Z,16.75
2022-11-28T00:48:39.024Z,14.38
2022-11-28T00:51:09.872Z,15.15
2022-11-28T00:53:38.018Z,16.63
2022-11-28T00:56:06.576Z,12.60
2022-11-28T00:58:35.444Z,10.73
2022-11-28T01:01:09.106Z,12.63
2022-11-28T01:03:37.177Z,14.63
2022-11-28T01:06:05.147Z,13.15
2022-11-28T01:08:34.730Z,15.80
2022-11-28T01:11:02.582Z,12.13
2022-11-28T01:13:30.432Z,13.73
2022-11-28T01:15:58.647Z,11.73
2022-11-28T01:18:26.482Z,15.70
2022-11-28T01:20:54.199Z,11.95
2022-11-28T01:23:21.909Z,11.25
2022-11-28T01:25:51.020Z,14.80
2022-11-28T01:28:18.775Z,15.95
2022-11-28T01:30:46.553Z,14.60
2022-11-28T01:33:14.376Z,14.18
2022-11-28T01:35:42.096Z,18.73
2022-11-28T01:38:09.833Z,12.98
2022-11-28T01:40:37.456Z,13.10
2022-11-28T01:43:07.270Z,12.80
2022-11-28T01:45:35.086Z,14.07
2022-11-28T01:48:04.710Z,18.30
2022-11-28T01:50:34.193Z,11.90
2022-11-28T01:53:05.742Z,15.48
2022-11-28T01:55:36.559Z,14.32
2022-11-28T01:58:06.835Z,16.33
2022-11-28T02:00:34.858Z,14.82
2022-11-28T02:03:07.677Z,13.13
2022-11-28T02:05:35.449Z,13.82
2022-11-28T02:08:03.628Z,12.63
2022-11-28T02:10:39.372Z,17.17
2022-11-28T02:13:23.405Z,13.02
2022-11-28T02:16:08.162Z,14.10
2022-11-28T02:18:50.898Z,14.32
2022-11-28T02:21:31.731Z,15.57
2022-11-28T02:24:39.370Z,12.75
2022-11-28T02:27:35.380Z,17.88
2022-11-28T02:30:15.799Z,12.80
2022-11-28T02:32:56.933Z,12.30
2022-11-28T02:35:34.523Z,14.98
2022-11-28T02:38:10.207Z,15.05
2022-11-28T02:40:41.418Z,13.32
2022-11-28T02:43:16.676Z,14.50
2022-11-28T02:45:51.955Z,13.63
2022-11-28T02:48:26.851Z,12.95
2022-11-28T02:50:59.875Z,13.13
2022-11-28T02:53:31.455Z,19.02
2022-11-28T02:56:00.412Z,12.73
2022-11-28T02:58:28.267Z,15.45
2022-11-28T03:00:56.546Z,12.95
2022-11-28T03:03:49.491Z,13.98
2022-11-28T03:06:29.999Z,15.10
2022-11-28T03:09:13.360Z,12.13
2022-11-28T03:11:51.131Z,18.15
2022-11-28T03:14:29.395Z,13.68
2022-11-28T03:17:07.184Z,14.07
2022-11-28T03:19:40.886Z,14.65
2022-11-28T03:22:13.497Z,15.93
2022-11-28T03:24:47.827Z,12.50
2022-11-28T03:27:19.198Z,16.20
2022-11-28T03:29:52.109Z,16.02
2022-11-28T03:32:24.870Z,16.35
2022-11-28T03:35:00.467Z,14.10
2022-11-28T03:37:34.223Z,19.13
2022-11-28T03:40:09.257Z,12.35
2022-11-28T03:42:41.362Z,12.73
2022-11-28T03:45:14.704Z,13.32
2022-11-28T03:47:47.871Z,16.73
2022-11-28T03:50:21.381Z,12.05
2022-11-28T03:52:55.258Z,13.23
2022-11-28T03:55:26.886Z,11.73
2022-11-28T03:58:01.223Z,17.23
2022-11-28T04:00:29.254Z,11.63
2022-11-28T04:03:10.210Z,12.98
2022-11-28T04:05:46.497Z,10.65
2022-11-28T04:08:18.742Z,14.60
2022-11-28T04:10:52.879Z,15.48
2022-11-28T04:13:25.010Z,12.75
2022-11-28T04:15:58.309Z,13.02
2022-11-28T04:18:31.035Z,13.40
2022-11-28T04:21:09.663Z,18.27
2022-11-28T04:23:41.052Z,14.40
2022-11-28T04:26:14.863Z,12.88
2022-11-28T04:28:44.070Z,14.65
2022-11-28T04:31:12.047Z,12.40
2022-11-28T04:33:44.156Z,15.98
2022-11-28T04:36:17.730Z,11.85
2022-11-28T04:38:54.313Z,14.35
2022-11-28T04:41:25.664Z,14.65
2022-11-28T04:44:00.427Z,13.93
2022-11-28T04:46:32.276Z,13.27
2022-11-28T04:48:59.990Z,12.55
2022-11-28T04:51:37.209Z,13.10
2022-11-28T04:54:10.806Z,13.05
2022-11-28T04:56:43.968Z,13.10
2022-11-28T04:59:13.736Z,13.57
2022-11-28T05:01:44.900Z,16.00
2022-11-28T05:04:14.226Z,12.88
2022-11-28T05:06:43.327Z,11.48
2022-11-28T05:09:11.726Z,12.07
2022-11-28T05:11:39.465Z,14.73
2022-11-28T05:14:07.481Z,13.30
2022-11-28T05:16:36.232Z,12.52
2022-11-28T05:19:04.049Z,14.43
2022-11-28T05:21:31.671Z,12.45
2022-11-28T05:24:00.944Z,11.77
2022-11-28T05:26:32.129Z,11.90
2022-11-28T05:28:59.771Z,10.73
2022-11-28T05:31:27.479Z,14.45
2022-11-28T05:33:55.292Z,10.95
2022-11-28T05:36:23.755Z,14.15
2022-11-28T05:38:51.420Z,9.98
2022-11-28T05:41:23.038Z,8.95
2022-11-28T05:43:50.787Z,9.85
2022-11-28T05:46:18.903Z,10.25
2022-11-28T05:48:46.629Z,13.23
2022-11-28T05:51:14.304Z,9.30
2022-11-28T05:53:42.342Z,8.77
2022-11-28T05:56:10.626Z,11.25
2022-11-28T05:58:40.093Z,14.23
2022-11-28T06:01:13.001Z,11.65
2022-11-28T06:03:41.085Z,11.75
2022-11-28T06:06:18.175Z,9.70
2022-11-28T06:08:47.234Z,12.02
2022-11-28T06:11:15.631Z,8.32
2022-11-28T06:13:45.898Z,10.40
2022-11-28T06:16:15.381Z,10.38
2022-11-28T06:18:43.427Z,9.75
2022-11-28T06:21:12.927Z,8.55
2022-11-28T06:23:41.624Z,9.90
2022-11-28T06:26:10.783Z,12.73
2022-11-28T06:28:38.870Z,10.52
2022-11-28T06:31:11.421Z,8.88
2022-11-28T06:33:39.093Z,10.68
2022-11-28T06:36:08.316Z,11.18
2022-11-28T06:38:36.327Z,10.13
2022-11-28T06:41:06.995Z,12.07
2022-11-28T06:43:34.737Z,13.55
2022-11-28T06:46:04.065Z,16.83
2022-11-28T06:48:33.392Z,14.15
2022-11-28T06:51:04.064Z,15.98
2022-11-28T06:53:31.940Z,14.00
2022-11-28T06:55:59.821Z,11.63
2022-11-28T06:58:27.480Z,13.85
2022-11-28T07:00:55.270Z,13.30
2022-11-28T07:03:23.115Z,15.27
2022-11-28T07:05:52.150Z,11.35
2022-11-28T07:08:19.899Z,12.77
2022-11-28T07:10:47.659Z,16.55
2022-11-28T07:13:15.343Z,13.40
2022-11-28T07:15:50.031Z,19.80
2022-11-28T07:18:18.194Z,10.30
2022-11-28T07:20:45.874Z,12.00
2022-11-28T07:23:14.878Z,11.43
2022-11-28T07:25:42.600Z,10.65
2022-11-28T07:28:10.330Z,17.20
2022-11-28T07:30:37.954Z,19.35
2022-11-28T07:33:05.674Z,11.90
2022-11-28T07:35:34.795Z,15.20
2022-11-28T07:38:02.521Z,10.75
2022-11-28T07:40:31.580Z,11.32
2022-11-28T07:42:59.324Z,18.63
2022-11-28T07:45:41.864Z,14.80
2022-11-28T07:48:14.792Z,13.27
2022-11-28T07:50:42.483Z,12.10
2022-11-28T07:53:10.123Z,12.20
2022-11-28T07:55:39.102Z,15.40
2022-11-28T07:58:07.002Z,12.27
2022-11-28T08:00:34.827Z,11.10
2022-11-28T08:03:02.511Z,15.15
2022-11-28T08:05:30.148Z,16.08
2022-11-28T08:07:57.942Z,10.60
2022-11-28T08:10:25.858Z,14.30
2022-11-28T08:12:54.946Z,12.52
2022-11-28T08:15:22.610Z,14.10
2022-11-28T08:17:50.286Z,13.35
2022-11-28T08:20:18.147Z,14.45
2022-11-28T08:22:45.892Z,10.07
2022-11-28T08:25:13.509Z,11.30
2022-11-28T08:27:41.210Z,11.82
2022-11-28T08:30:11.499Z,12.00
2022-11-28T08:32:39.295Z,14.77
2022-11-28T08:35:07.842Z,11.02
2022-11-28T08:37:35.481Z,14.90
2022-11-28T08:40:03.119Z,8.80
2022-11-28T08:42:30.854Z,9.52
2022-11-28T08:44:58.766Z,11.27
2022-11-28T08:47:27.752Z,9.13
2022-11-28T08:49:55.427Z,14.05
2022-11-28T08:52:23.419Z,19.80
2022-11-28T08:54:51.151Z,12.65
2022-11-28T08:57:18.812Z,12.30
2022-11-28T08:59:46.582Z,9.80
2022-11-28T09:02:14.308Z,12.70
2022-11-28T09:04:43.361Z,7.40
2022-11-28T09:07:10.956Z,11.43
2022-11-28T09:09:38.639Z,16.02
2022-11-28T09:12:06.790Z,11.30
2022-11-28T09:14:34.505Z,13.20
2022-11-28T09:17:02.229Z,21.15
2022-11-28T09:19:30.107Z,13.48
2022-11-28T09:21:59.260Z,22.25
2022-11-28T09:24:26.927Z,11.88
2022-11-28T09:26:54.733Z,19.52
2022-11-28T09:29:22.473Z,14.32
2022-11-28T09:31:50.084Z,17.58
2022-11-28T09:34:17.892Z,16.75
2022-11-28T09:36:45.536Z,18.27
2022-11-28T09:39:14.500Z,13.73
2022-11-28T09:41:55.283Z,16.98
2022-11-28T09:44:26.124Z,15.55
2022-11-28T09:46:59.006Z,20.13
2022-11-28T09:49:39.924Z,17.65
2022-11-28T09:52:18.753Z,14.90
2022-11-28T09:54:53.540Z,26.52
2022-11-28T09:57:33.609Z,16.02
2022-11-28T10:00:01.993Z,14.40
2022-11-28T10:02:38.817Z,22.55
2022-11-28T10:05:16.150Z,19.05
2022-11-28T10:07:57.060Z,17.15
2022-11-28T10:10:36.757Z,20.00
2022-11-28T10:13:13.573Z,16.70
2022-11-28T10:15:51.679Z,18.27
2022-11-28T10:18:31.933Z,11.27
2022-11-28T10:21:03.468Z,27.63
2022-11-28T10:23:36.286Z,18.58
2022-11-28T10:26:09.057Z,23.17
2022-11-28T10:28:39.988Z,13.45
2022-11-28T10:31:14.500Z,17.58
2022-11-28T10:33:47.164Z,21.30
2022-11-28T10:36:21.943Z,21.00
2022-11-28T10:38:49.848Z,20.48
2022-11-28T10:41:24.715Z,23.63
2022-11-28T10:44:00.415Z,31.08
2022-11-28T10:46:42.610Z,22.73
2022-11-28T10:49:25.359Z,18.60
2022-11-28T10:52:04.391Z,19.98
2022-11-28T10:54:54.406Z,17.42
2022-11-28T10:57:29.038Z,18.73
2022-11-28T11:00:04.032Z,19.48
2022-11-28T11:02:38.452Z,12.77
2022-11-28T11:05:08.303Z,16.45
2022-11-28T11:07:36.124Z,15.07
2022-11-28T11:10:15.475Z,18.17
2022-11-28T11:12:45.143Z,15.70
2022-11-28T11:15:19.024Z,23.63
2022-11-28T11:17:46.878Z,18.42
2022-11-28T11:20:27.918Z,20.60
2022-11-28T11:22:56.731Z,17.23
2022-11-28T11:25:25.670Z,18.17
2022-11-28T11:27:56.432Z,20.52
2022-11-28T11:30:28.400Z,17.23
2022-11-28T11:32:57.830Z,19.48
2022-11-28T11:35:28.850Z,17.30
2022-11-28T11:38:17.264Z,24.08
2022-11-28T11:40:45.631Z,21.10
2022-11-28T11:43:29.111Z,18.65
2022-11-28T11:46:08.991Z,17.02
2022-11-28T11:48:39.139Z,24.88
2022-11-28T11:51:08.422Z,28.55
2022-11-28T11:53:36.129Z,23.35
2022-11-28T11:56:04.745Z,19.65
2022-11-28T11:58:40.565Z,22.58
2022-11-28T12:01:09.582Z,20.73
2022-11-28T12:03:41.992Z,23.02
2022-11-28T12:06:16.794Z,18.27
2022-11-28T12:08:51.206Z,18.67
2022-11-28T12:11:25.222Z,22.83
2022-11-28T12:13:54.732Z,20.63
2022-11-28T12:16:46.807Z,17.63
2022-11-28T12:19:24.701Z,11.43
2022-11-28T12:22:03.888Z,15.90
2022-11-28T12:24:37.436Z,13.52
2022-11-28T12:27:13.067Z,16.45
2022-11-28T12:29:52.649Z,11.85
2022-11-28T12:32:42.105Z,16.50
2022-11-28T12:35:26.447Z,15.05
2022-11-28T12:38:17.108Z,12.48
2022-11-28T12:41:01.830Z,13.85
2022-11-28T12:43:41.459Z,16.38
2022-11-28T12:46:21.136Z,14.23
2022-11-28T12:49:04.254Z,18.08
2022-11-28T12:51:40.994Z,16.95
2022-11-28T12:54:37.515Z,21.35
2022-11-28T12:57:11.962Z,13.32
2022-11-28T12:59:48.711Z,12.80
2022-11-28T13:02:29.130Z,17.00
2022-11-28T13:05:22.266Z,15.10
2022-11-28T13:08:04.443Z,11.85
2022-11-28T13:10:40.575Z,14.15
2022-11-28T13:13:15.090Z,11.80
2022-11-28T13:15:52.683Z,21.23
2022-11-28T13:18:38.175Z,19.58
2022-11-28T13:21:18.746Z,16.80
2022-11-28T13:23:51.971Z,21.40
2022-11-28T13:26:35.658Z,27.03
2022-11-28T13:29:13.646Z,20.55
2022-11-28T13:31:48.196Z,26.45
2022-11-28T13:34:19.082Z,25.35
2022-11-28T13:39:46.328Z,20.75
2022-11-28T13:43:02.417Z,22.70
2022-11-28T13:45:30.238Z,19.00
2022-11-28T13:48:00.686Z,20.80
2022-11-28T13:50:39.261Z,24.83
2022-11-28T13:53:25.769Z,20.98
2022-11-28T13:56:10.517Z,25.00
2022-11-28T13:58:46.085Z,22.40
2022-11-28T14:01:15.785Z,18.85
2022-11-28T14:03:50.198Z,24.00
2022-11-28T14:06:23.160Z,18.02
2022-11-28T14:09:06.926Z,21.58
2022-11-28T14:11:52.650Z,20.88
2022-11-28T14:14:50.273Z,23.50
2022-11-28T14:17:38.817Z,28.52
2022-11-28T14:20:20.490Z,33.50
2022-11-28T14:23:14.194Z,21.92
2022-11-28T14:25:44.669Z,22.73
2022-11-28T14:28:22.060Z,26.08
2022-11-28T14:30:50.770Z,22.25
2022-11-28T14:33:21.876Z,19.25
2022-11-28T14:36:24.671Z,26.75
2022-11-28T14:39:06.718Z,18.77
2022-11-28T14:42:25.425Z,21.98
2022-11-28T14:45:06.744Z,19.90
2022-11-28T14:47:39.632Z,28.75
2022-11-28T14:50:47.227Z,20.65
2022-11-28T14:53:44.579Z,25.83
2022-11-28T14:56:24.846Z,20.77
2022-11-28T14:58:56.082Z,31.63
2022-11-28T15:01:34.880Z,28.55
2022-11-28T15:04:15.409Z,30.75
2022-11-28T15:06:44.730Z,27.20
2022-11-28T15:09:22.303Z,21.55
2022-11-28T15:12:11.335Z,25.25
2022-11-28T15:14:39.691Z,26.27
2022-11-28T15:17:12.945Z,21.13
2022-11-28T15:19:45.885Z,26.67
2022-11-28T15:22:32.429Z,24.17
2022-11-28T15:25:00.615Z,18.95
2022-11-28T15:27:29.733Z,21.52
2022-11-28T15:29:59.694Z,23.35
2022-11-28T15:32:29.826Z,26.65
2022-11-28T15:35:01.252Z,24.25
2022-11-28T15:37:31.145Z,23.73
2022-11-28T15:40:00.288Z,23.10
2022-11-28T15:42:32.206Z,24.27
2022-11-28T15:45:04.696Z,20.08
2022-11-28T15:47:32.933Z,20.00
2022-11-28T15:50:02.928Z,22.75
2022-11-28T15:52:31.919Z,26.42
2022-11-28T15:54:59.639Z,24.27
2022-11-28T15:57:32.485Z,12.82
2022-11-28T16:00:00.286Z,14.45
2022-11-28T16:02:32.695Z,17.48
2022-11-28T16:05:08.772Z,20.90
2022-11-28T16:07:41.936Z,17.52
2022-11-28T16:10:23.666Z,20.60
2022-11-28T16:12:57.973Z,15.25
2022-11-28T16:15:27.211Z,14.95
2022-11-28T16:17:55.495Z,14.82
2022-11-28T16:20:25.833Z,15.23
2022-11-28T16:23:00.467Z,23.77
2022-11-28T16:25:28.648Z,18.80
2022-11-28T16:27:58.272Z,21.45
2022-11-28T16:30:29.898Z,23.40
2022-11-28T16:32:58.081Z,17.27
2022-11-28T16:35:28.140Z,22.35
2022-11-28T16:38:06.079Z,24.48
2022-11-28T16:40:34.160Z,22.55
2022-11-28T16:43:04.923Z,21.85
2022-11-28T16:45:34.585Z,20.75
2022-11-28T16:48:08.693Z,25.67
2022-11-28T16:50:37.164Z,23.40
2022-11-28T16:53:06.088Z,21.98
2022-11-28T16:55:47.353Z,21.42
2022-11-28T16:58:22.013Z,25.80
2022-11-28T17:01:09.249Z,19.33
2022-11-28T17:03:45.996Z,31.55
2022-11-28T17:06:17.989Z,26.20
2022-11-28T17:08:46.034Z,23.10
2022-11-28T17:11:17.698Z,21.85
2022-11-28T17:13:46.904Z,26.98
2022-11-28T17:16:23.405Z,18.10
2022-11-28T17:18:51.853Z,20.83
2022-11-28T17:21:28.023Z,20.73
2022-11-28T17:23:56.651Z,20.73
2022-11-28T17:26:24.345Z,25.48
2022-11-28T17:28:53.397Z,21.88
2022-11-28T17:31:23.551Z,21.35
2022-11-28T17:33:51.367Z,29.27
2022-11-28T17:36:19.063Z,19.25
2022-11-28T17:38:46.718Z,20.98
2022-11-28T17:41:15.742Z,17.77
2022-11-28T17:43:43.574Z,17.60
2022-11-28T17:46:12.656Z,21.45
2022-11-28T17:48:40.347Z,17.25
2022-11-28T17:51:08.047Z,18.63
2022-11-28T17:53:35.747Z,16.95
2022-11-28T17:56:03.462Z,16.85
2022-11-28T17:58:31.110Z,23.38
2022-11-28T18:01:00.704Z,15.15
2022-11-28T18:03:30.267Z,18.38
2022-11-28T18:05:57.925Z,14.52
2022-11-28T18:08:25.608Z,13.40
2022-11-28T18:11:04.647Z,14.85
2022-11-28T18:13:32.957Z,11.90
2022-11-28T18:16:00.792Z,14.23
2022-11-28T18:18:30.358Z,14.10
2022-11-28T18:20:58.055Z,14.30
2022-11-28T18:23:25.673Z,22.55
2022-11-28T18:25:53.419Z,23.30
2022-11-28T18:28:22.010Z,23.10
2022-11-28T18:30:49.742Z,22.70
2022-11-28T18:33:17.596Z,26.83
2022-11-28T18:35:46.601Z,23.58
2022-11-28T18:38:14.289Z,23.80
2022-11-28T18:40:42.043Z,27.23
2022-11-28T18:43:09.821Z,24.70
2022-11-28T18:45:37.540Z,22.63
2022-11-28T18:48:05.454Z,23.70
2022-11-28T18:50:33.176Z,25.60
2022-11-28T18:53:02.219Z,21.83
2022-11-28T18:55:29.929Z,26.25
2022-11-28T18:57:57.659Z,24.55
2022-11-28T19:00:25.829Z,24.10
2022-11-28T19:02:55.101Z,20.88
2022-11-28T19:05:22.838Z,17.80
2022-11-28T19:07:50.608Z,19.35
2022-11-28T19:10:20.262Z,25.70
2022-11-28T19:12:47.977Z,27.67
2022-11-28T19:15:15.961Z,27.63
2022-11-28T19:17:43.665Z,22.02
2022-11-28T19:20:12.362Z,20.45
2022-11-28T19:22:40.011Z,23.45
2022-11-28T19:25:09.150Z,29.08
2022-11-28T19:27:38.112Z,25.15
2022-11-28T19:30:06.924Z,23.13
2022-11-28T19:32:36.187Z,25.83
2022-11-28T19:35:03.889Z,26.80
2022-11-28T19:37:31.807Z,26.88
2022-11-28T19:40:02.575Z,33.80
2022-11-28T19:42:30.921Z,35.25
2022-11-28T19:45:00.059Z,28.95
2022-11-28T19:47:27.723Z,21.75
2022-11-28T19:49:55.449Z,25.65
2022-11-28T19:52:23.078Z,22.67
2022-11-28T19:54:50.825Z,22.52
2022-11-28T19:57:20.691Z,22.95
2022-11-28T19:59:48.389Z,24.30
2022-11-28T20:02:17.647Z,19.50
2022-11-28T20:04:45.435Z,26.80
2022-11-28T20:07:13.869Z,24.92
2022-11-28T20:09:41.740Z,29.48
2022-11-28T20:12:09.553Z,29.83
2022-11-28T20:14:37.518Z,28.05
2022-11-28T20:17:05.228Z,26.48
2022-11-28T20:19:34.348Z,24.65
2022-11-28T20:22:02.412Z,27.73
2022-11-28T20:24:30.590Z,26.05
2022-11-28T20:26:58.220Z,23.58
2022-11-28T20:29:27.840Z,25.88
2022-11-28T20:31:57.093Z,28.23
2022-11-28T20:34:25.545Z,25.65
2022-11-28T20:36:55.243Z,30.45
2022-11-28T20:39:23.205Z,31.15
2022-11-28T20:41:51.085Z,28.80
2022-11-28T20:44:19.316Z,23.02
2022-11-28T20:46:49.469Z,23.63
2022-11-28T20:49:17.416Z,29.90
2022-11-28T20:51:45.035Z,23.13
2022-11-28T20:54:14.669Z,24.88
2022-11-28T20:57:13.268Z,25.27
2022-11-28T20:59:32.022Z,28.90
2022-11-28T21:01:59.748Z,28.05
2022-11-28T21:04:27.476Z,26.60
2022-11-28T21:06:55.183Z,35.78
2022-11-28T21:09:24.309Z,24.70
2022-11-28T21:11:59.678Z,27.00
2022-11-28T21:14:28.575Z,23.50
2022-11-28T21:16:56.809Z,26.45
2022-11-28T21:19:27.361Z,25.52
2022-11-28T21:21:55.037Z,22.50
2022-11-28T21:24:24.051Z,23.15
2022-11-28T21:26:54.440Z,28.92
2022-11-28T21:29:23.452Z,24.60
2022-11-28T21:31:51.511Z,29.73
2022-11-28T21:34:19.715Z,27.20
2022-11-28T21:36:47.719Z,28.98
2022-11-28T21:39:18.595Z,26.20
2022-11-28T21:41:47.646Z,23.67
2022-11-28T21:44:15.344Z,24.90
2022-11-28T21:46:43.026Z,23.45
2022-11-28T21:49:10.914Z,28.60
2022-11-28T21:51:38.660Z,24.13
2022-11-28T21:54:06.586Z,24.42
2022-11-28T21:56:34.377Z,23.13
2022-11-28T21:59:04.313Z,24.55
2022-11-28T22:01:32.016Z,22.73
2022-11-28T22:04:02.824Z,23.05
2022-11-28T22:06:31.081Z,26.52
2022-11-28T22:09:03.234Z,21.63
2022-11-28T22:11:34.980Z,21.77
2022-11-28T22:14:04.031Z,22.20
2022-11-28T22:16:31.732Z,24.35
2022-11-28T22:19:01.053Z,20.10
2022-11-28T22:21:51.500Z,22.77
2022-11-28T22:24:17.109Z,24.20
2022-11-28T22:26:45.728Z,23.67
2022-11-28T22:29:15.382Z,22.65
2022-11-28T22:31:43.134Z,23.05
2022-11-28T22:34:10.942Z,19.95
2022-11-28T22:36:38.855Z,21.73
2022-11-28T22:39:06.956Z,19.65
2022-11-28T22:41:35.485Z,21.00
2022-11-28T22:44:04.738Z,21.25
2022-11-28T22:46:35.594Z,31.08
2022-11-28T22:49:04.110Z,23.35
2022-11-28T22:51:32.835Z,21.85
2022-11-28T22:54:02.463Z,24.65
2022-11-28T22:56:30.947Z,27.88
2022-11-28T22:58:58.661Z,23.20
2022-11-28T23:01:29.115Z,25.42
2022-11-28T23:03:58.225Z,21.27
2022-11-28T23:06:28.390Z,26.95
2022-11-28T23:08:57.214Z,24.48
2022-11-28T23:11:27.626Z,19.55
2022-11-28T23:13:55.620Z,18.27
2022-11-28T23:16:25.629Z,21.58
2022-11-28T23:18:56.638Z,26.55
2022-11-28T23:21:27.280Z,21.80
2022-11-28T23:23:55.166Z,20.58
2022-11-28T23:26:25.855Z,18.35
2022-11-28T23:28:54.559Z,19.35
2022-11-28T23:31:24.531Z,21.60
2022-11-28T23:33:52.799Z,20.30
2022-11-28T23:36:22.745Z,21.58
2022-11-28T23:38:53.611Z,19.65
2022-11-28T23:41:21.607Z,23.20
2022-11-28T23:43:50.793Z,18.73
2022-11-28T23:46:20.850Z,22.35
2022-11-28T23:48:49.438Z,20.55
2022-11-28T23:51:19.855Z,21.35
2022-11-28T23:53:47.846Z,20.05
2022-11-28T23:56:19.119Z,24.58
2022-11-28T23:58:47.168Z,22.60
